Time;durP1;ratioP1;P1;durP2;ratioP2;P2;SDS_P1;SDS_P2;PMS_P1;PMS_P2;Temp;Humidity;BMP_temperature;BMP_pressure;BME280_temperature;BME280_humidity;BME280_pressure;Samples;Min_cycle;Max_cycle;Signal;HPM_P1;HPM_P2
2023/02/25 00:01:14;;;;;;;6.78;4.00;;;;;;;;;;10450081;28;19927;-83
2023/02/25 00:06:18;;;;;;;7.13;3.00;;;;;;;;;;10461463;28;20036;-84
2023/02/25 00:11:24;;;;;;;4.32;2.28;;;;;;;;;;10458541;28;20045;-87
2023/02/25 00:16:29;;;;;;;8.30;2.70;;;;;;;;;;10448101;28;20057;-84
2023/02/25 00:21:32;;;;;;;12.82;3.15;;;;;;;;;;10450904;28;20047;-84
2023/02/25 00:26:38;;;;;;;6.50;2.85;;;;;;;;;;10442350;28;20059;-84
2023/02/25 00:31:45;;;;;;;5.22;2.80;;;;;;;;;;10450579;28;20075;-81
2023/02/25 00:36:50;;;;;;;4.28;1.77;;;;;;;;;;10458622;28;20049;-82
2023/02/25 00:41:53;;;;;;;4.78;2.25;;;;;;;;;;10458279;28;20250;-81
2023/02/25 00:46:58;;;;;;;6.93;2.30;;;;;;;;;;10446407;22;20055;-79
2023/02/25 00:52:02;;;;;;;8.55;1.98;;;;;;;;;;10427331;28;20902;-80
2023/02/25 00:57:05;;;;;;;4.72;2.00;;;;;;;;;;10427897;28;20066;-80
2023/02/25 01:02:10;;;;;;;5.25;2.13;;;;;;;;;;10422298;28;20076;-81
2023/02/25 01:07:14;;;;;;;7.28;2.47;;;;;;;;;;10432452;28;20036;-84
2023/02/25 01:12:18;;;;;;;5.55;1.60;;;;;;;;;;10426143;28;20049;-79
2023/02/25 01:17:23;;;;;;;6.03;1.50;;;;;;;;;;10433544;28;20044;-80
2023/02/25 01:22:27;;;;;;;5.80;2.13;;;;;;;;;;10434040;28;20559;-79
2023/02/25 01:27:30;;;;;;;3.30;1.38;;;;;;;;;;10415322;28;20419;-80
2023/02/25 01:32:35;;;;;;;8.80;2.60;;;;;;;;;;10417665;28;20519;-80
2023/02/25 01:37:39;;;;;;;3.27;1.63;;;;;;;;;;10417662;28;20041;-80
2023/02/25 01:42:43;;;;;;;6.20;2.10;;;;;;;;;;10401319;28;20057;-80
2023/02/25 01:47:51;;;;;;;4.90;1.52;;;;;;;;;;10417763;28;20467;-80
2023/02/25 01:52:57;;;;;;;6.55;1.75;;;;;;;;;;10417019;28;20049;-80
2023/02/25 01:58:01;;;;;;;7.78;2.33;;;;;;;;;;10423430;28;20053;-80
2023/02/25 02:03:14;;;;;;;7.38;2.55;;;;;;;;;;10422911;28;20523;-81
2023/02/25 02:08:18;;;;;;;8.30;2.60;;;;;;;;;;10389846;28;20161;-81
2023/02/25 02:13:22;;;;;;;6.35;2.75;;;;;;;;;;10393821;28;20065;-80
2023/02/25 02:18:29;;;;;;;7.28;2.63;;;;;;;;;;10397521;28;20061;-80
2023/02/25 02:23:51;;;;;;;6.90;3.13;;;;;;;;;;10403794;28;20578;-80
2023/02/25 02:29:44;;;;;;;9.40;2.97;;;;;;;;;;10411495;28;20053;-83
2023/02/25 02:34:57;;;;;;;4.13;1.98;;;;;;;;;;10399334;28;20044;-81
2023/02/25 02:40:19;;;;;;;4.88;1.75;;;;;;;;;;10418942;28;20044;-82
2023/02/25 02:45:28;;;;;;;5.68;1.92;;;;;;;;;;10421995;28;20491;-83
2023/02/25 02:50:38;;;;;;;6.03;1.75;;;;;;;;;;10419717;28;20098;-82
2023/02/25 02:55:46;;;;;;;5.80;2.15;;;;;;;;;;10415410;28;20052;-82
2023/02/25 03:00:55;;;;;;;7.30;2.65;;;;;;;;;;10428933;28;20535;-82
2023/02/25 03:06:02;;;;;;;8.18;2.65;;;;;;;;;;10418153;28;20045;-82
2023/02/25 03:11:05;;;;;;;8.00;2.55;;;;;;;;;;10419910;28;20045;-82
2023/02/25 03:16:12;;;;;;;9.63;3.10;;;;;;;;;;10419901;28;20041;-81
2023/02/25 03:21:21;;;;;;;4.60;1.73;;;;;;;;;;10415321;28;20359;-83
2023/02/25 03:26:29;;;;;;;6.20;1.90;;;;;;;;;;10424940;28;20041;-83
2023/02/25 03:31:41;;;;;;;10.52;2.55;;;;;;;;;;10414700;28;20064;-81
2023/02/25 03:36:50;;;;;;;9.70;2.25;;;;;;;;;;10414303;28;20102;-82
2023/02/25 03:41:56;;;;;;;7.57;2.80;;;;;;;;;;10410541;28;20049;-82
2023/02/25 03:47:00;;;;;;;;;;;;;;;;;;10415944;28;20049;-82
2023/02/25 03:52:10;;;;;;;6.78;2.70;;;;;;;;;;10413057;28;19931;-82
2023/02/25 03:57:14;;;;;;;15.15;3.10;;;;;;;;;;10397964;28;20132;-82
2023/02/25 04:02:18;;;;;;;9.77;2.47;;;;;;;;;;10434203;28;20045;-83
2023/02/25 04:07:24;;;;;;;10.60;3.30;;;;;;;;;;10418884;28;20053;-82
2023/02/25 04:12:27;;;;;;;7.60;2.05;;;;;;;;;;10412457;28;20121;-82
2023/02/25 04:17:30;;;;;;;6.05;2.17;;;;;;;;;;10394472;28;20042;-82
2023/02/25 04:22:35;;;;;;;10.38;2.67;;;;;;;;;;10427335;28;20131;-82
2023/02/25 04:27:39;;;;;;;6.45;2.00;;;;;;;;;;10435750;28;20052;-82
2023/02/25 04:32:42;;;;;;;10.13;3.00;;;;;;;;;;10434957;28;20041;-82
2023/02/25 04:37:47;;;;;;;8.25;2.30;;;;;;;;;;10433316;28;20420;-82
2023/02/25 04:42:51;;;;;;;8.35;3.03;;;;;;;;;;10434569;28;20048;-83
2023/02/25 04:47:56;;;;;;;9.27;2.45;;;;;;;;;;10433378;28;20116;-83
2023/02/25 04:53:02;;;;;;;9.07;2.50;;;;;;;;;;10438207;28;20107;-82
2023/02/25 04:58:05;;;;;;;9.77;2.73;;;;;;;;;;10432890;28;20064;-82
2023/02/25 05:03:08;;;;;;;7.30;1.70;;;;;;;;;;10440592;28;20049;-82
2023/02/25 05:08:13;;;;;;;8.95;2.38;;;;;;;;;;10443774;28;20041;-83
2023/02/25 05:13:16;;;;;;;9.30;3.22;;;;;;;;;;10450664;28;20100;-83
2023/02/25 05:18:22;;;;;;;14.45;2.67;;;;;;;;;;10437711;28;20415;-82
2023/02/25 05:23:27;;;;;;;6.30;2.33;;;;;;;;;;10445792;28;20045;-82
2023/02/25 05:28:30;;;;;;;8.52;2.75;;;;;;;;;;10452589;28;20045;-82
2023/02/25 05:33:33;;;;;;;10.27;2.70;;;;;;;;;;10431977;28;20252;-82
2023/02/25 05:38:39;;;;;;;5.85;2.90;;;;;;;;;;10440661;28;20041;-82
2023/02/25 05:43:44;;;;;;;8.35;2.58;;;;;;;;;;10427855;28;20057;-82
2023/02/25 05:48:48;;;;;;;5.80;1.75;;;;;;;;;;10415203;28;20054;-82
2023/02/25 05:53:53;;;;;;;10.68;2.60;;;;;;;;;;10414487;28;20072;-82
2023/02/25 05:58:57;;;;;;;15.18;4.13;;;;;;;;;;10431345;28;20037;-82
2023/02/25 06:04:00;;;;;;;11.63;4.03;;;;;;;;;;10429130;28;20060;-83
2023/02/25 06:09:05;;;;;;;11.13;2.92;;;;;;;;;;10425260;28;20056;-82
2023/02/25 06:14:08;;;;;;;7.38;2.85;;;;;;;;;;10437594;28;20045;-82
2023/02/25 06:19:13;;;;;;;2.65;1.77;;;;;;;;;;10428138;28;20045;-82
2023/02/25 06:24:17;;;;;;;6.60;2.13;;;;;;;;;;10438491;28;20803;-83
2023/02/25 06:29:21;;;;;;;4.63;2.20;;;;;;;;;;10425295;28;20099;-82
2023/02/25 06:34:28;;;;;;;6.47;2.00;;;;;;;;;;10427651;28;20048;-83
2023/02/25 06:39:33;;;;;;;7.35;2.72;;;;;;;;;;10422500;28;20721;-82
2023/02/25 06:44:37;;;;;;;7.45;2.78;;;;;;;;;;10420072;28;20060;-82
2023/02/25 06:49:40;;;;;;;8.40;2.97;;;;;;;;;;10428778;28;20162;-83
2023/02/25 06:54:45;;;;;;;7.72;3.50;;;;;;;;;;10423634;28;20075;-82
2023/02/25 06:59:48;;;;;;;8.45;3.03;;;;;;;;;;10437706;28;20111;-82
2023/02/25 07:04:53;;;;;;;5.10;2.10;;;;;;;;;;10436619;28;20041;-82
2023/02/25 07:09:58;;;;;;;10.15;3.90;;;;;;;;;;10421956;28;20111;-82
2023/02/25 07:15:01;;;;;;;7.30;2.30;;;;;;;;;;10436169;28;20356;-83
2023/02/25 07:20:05;;;;;;;8.63;3.30;;;;;;;;;;10425798;28;20055;-82
2023/02/25 07:25:11;;;;;;;6.10;2.63;;;;;;;;;;10431468;28;20059;-82
2023/02/25 07:30:15;;;;;;;8.82;2.80;;;;;;;;;;10429902;28;20068;-82
2023/02/25 07:35:18;;;;;;;6.13;3.38;;;;;;;;;;10436795;28;20511;-80
2023/02/25 07:40:23;;;;;;;8.65;3.15;;;;;;;;;;10433699;28;20045;-80
2023/02/25 07:45:26;;;;;;;11.02;3.80;;;;;;;;;;10401795;28;20038;-80
2023/02/25 07:50:29;;;;;;;11.90;3.35;;;;;;;;;;10398648;28;20124;-80
2023/02/25 07:55:34;;;;;;;6.88;1.98;;;;;;;;;;10396670;28;20041;-81
2023/02/25 08:00:39;;;;;;;6.88;2.30;;;;;;;;;;10379878;28;20150;-81
2023/02/25 08:05:43;;;;;;;11.05;3.67;;;;;;;;;;10407086;28;20041;-82
2023/02/25 08:10:48;;;;;;;8.82;3.50;;;;;;;;;;10440935;28;20037;-82
2023/02/25 08:15:51;;;;;;;7.57;3.33;;;;;;;;;;10420771;28;20711;-83
2023/02/25 08:20:57;;;;;;;11.90;3.80;;;;;;;;;;10404034;28;20236;-82
2023/02/25 08:26:02;;;;;;;14.10;3.55;;;;;;;;;;10426441;28;20076;-82
2023/02/25 08:31:10;;;;;;;5.77;2.10;;;;;;;;;;10429105;28;20519;-82
2023/02/25 08:36:20;;;;;;;12.20;3.30;;;;;;;;;;10427963;28;20094;-82
2023/02/25 08:41:26;;;;;;;9.10;3.25;;;;;;;;;;10419268;28;20447;-81
2023/02/25 08:46:32;;;;;;;5.35;2.22;;;;;;;;;;10413844;28;20056;-83
2023/02/25 08:51:37;;;;;;;10.98;3.83;;;;;;;;;;10405657;28;20067;-80
2023/02/25 08:56:43;;;;;;;11.98;3.55;;;;;;;;;;10408051;28;20049;-81
2023/02/25 09:01:47;;;;;;;4.47;2.25;;;;;;;;;;10393128;28;20055;-81
2023/02/25 09:06:52;;;;;;;13.25;3.50;;;;;;;;;;10383770;28;20108;-81
2023/02/25 09:11:57;;;;;;;11.25;2.92;;;;;;;;;;10520143;22;20048;-89
2023/02/25 09:17:03;;;;;;;12.70;4.05;;;;;;;;;;10454194;28;20045;-85
2023/02/25 09:22:07;;;;;;;8.43;2.88;;;;;;;;;;10442008;28;20072;-85
2023/02/25 09:27:12;;;;;;;10.32;3.03;;;;;;;;;;10440440;28;20045;-86
2023/02/25 09:32:18;;;;;;;12.50;3.53;;;;;;;;;;10443176;28;20091;-86
2023/02/25 09:37:22;;;;;;;15.55;3.50;;;;;;;;;;10437916;28;20041;-88
2023/02/25 09:42:48;;;;;;;6.72;2.35;;;;;;;;;;10443894;28;20041;-85
2023/02/25 09:47:56;;;;;;;9.38;3.30;;;;;;;;;;10419898;28;20056;-85
2023/02/25 09:53:06;;;;;;;12.43;3.35;;;;;;;;;;10425131;28;20061;-85
2023/02/25 09:58:18;;;;;;;14.88;3.38;;;;;;;;;;10425156;28;20518;-89
2023/02/25 10:03:29;;;;;;;7.47;2.70;;;;;;;;;;10424836;28;20045;-84
2023/02/25 10:08:37;;;;;;;10.63;2.65;;;;;;;;;;10415934;28;20413;-83
2023/02/25 10:13:53;;;;;;;7.85;2.67;;;;;;;;;;10413678;28;20057;-83
2023/02/25 10:19:07;;;;;;;9.13;2.53;;;;;;;;;;10416804;28;20136;-84
2023/02/25 10:24:27;;;;;;;8.18;2.45;;;;;;;;;;10421108;28;20535;-84
2023/02/25 10:29:38;;;;;;;8.40;2.67;;;;;;;;;;10460412;28;20130;-86
2023/02/25 10:34:42;;;;;;;10.38;3.80;;;;;;;;;;10457016;28;20060;-88
2023/02/25 10:39:47;;;;;;;11.02;2.85;;;;;;;;;;10425625;28;20459;-85
2023/02/25 10:44:53;;;;;;;9.57;3.30;;;;;;;;;;10442158;28;20045;-86
2023/02/25 10:50:18;;;;;;;7.20;2.30;;;;;;;;;;10443862;28;20087;-86
2023/02/25 10:55:54;;;;;;;10.40;2.80;;;;;;;;;;10448735;28;20037;-86
2023/02/25 11:01:04;;;;;;;9.00;3.20;;;;;;;;;;10444834;28;20068;-86
2023/02/25 11:06:14;;;;;;;8.25;2.40;;;;;;;;;;10434324;28;20061;-88
2023/02/25 11:11:20;;;;;;;6.93;2.30;;;;;;;;;;10432098;28;20257;-85
2023/02/25 11:16:26;;;;;;;11.57;2.58;;;;;;;;;;10419855;28;20547;-83
2023/02/25 11:21:36;;;;;;;6.47;1.90;;;;;;;;;;10432950;28;20083;-89
2023/02/25 11:26:43;;;;;;;4.65;1.70;;;;;;;;;;10429580;28;20459;-88
2023/02/25 11:31:50;;;;;;;6.40;2.00;;;;;;;;;;10427833;28;20137;-85
2023/02/25 11:36:54;;;;;;;5.45;1.90;;;;;;;;;;10431280;28;20052;-83
2023/02/25 11:42:01;;;;;;;5.75;1.58;;;;;;;;;;10420609;28;20150;-83
2023/02/25 11:47:15;;;;;;;5.35;1.80;;;;;;;;;;10411311;28;20555;-87
2023/02/25 11:52:24;;;;;;;5.72;2.45;;;;;;;;;;10436800;28;20049;-85
2023/02/25 11:57:35;;;;;;;3.95;1.83;;;;;;;;;;10422414;28;20033;-85
2023/02/25 12:02:52;;;;;;;6.35;2.00;;;;;;;;;;10422244;28;20850;-86
2023/02/25 12:08:15;;;;;;;4.80;1.63;;;;;;;;;;10418429;28;20041;-85
2023/02/25 12:13:51;;;;;;;1.95;1.38;;;;;;;;;;10424160;28;20037;-85
2023/02/25 12:19:34;;;;;;;6.30;2.10;;;;;;;;;;10438238;28;20071;-88
2023/02/25 12:24:58;;;;;;;9.32;3.10;;;;;;;;;;10419371;28;20169;-83
2023/02/25 12:30:32;;;;;;;5.32;2.50;;;;;;;;;;10410399;28;20538;-83
2023/02/25 12:35:52;;;;;;;7.88;2.42;;;;;;;;;;10416360;28;20045;-84
2023/02/25 12:41:18;;;;;;;5.93;3.03;;;;;;;;;;10409581;28;20663;-84
2023/02/25 12:46:38;;;;;;;3.97;1.95;;;;;;;;;;10410359;28;20048;-83
2023/02/25 12:52:11;;;;;;;4.93;2.00;;;;;;;;;;10426387;28;20077;-84
2023/02/25 12:57:38;;;;;;;3.58;1.40;;;;;;;;;;10410075;28;20072;-83
2023/02/25 13:03:06;;;;;;;2.10;1.27;;;;;;;;;;10413640;28;20064;-82
2023/02/25 13:08:44;;;;;;;2.35;1.38;;;;;;;;;;10410438;28;20131;-88
2023/02/25 13:14:09;;;;;;;0.65;0.65;;;;;;;;;;10515657;22;20298;-86
2023/02/25 13:19:35;;;;;;;0.57;0.50;;;;;;;;;;10339659;28;20046;-87
2023/02/25 13:24:53;;;;;;;0.80;0.80;;;;;;;;;;10308005;28;20089;-87
2023/02/25 13:30:26;;;;;;;1.50;1.02;;;;;;;;;;10365556;28;20050;-87
2023/02/25 13:35:44;;;;;;;1.00;0.93;;;;;;;;;;10366754;28;20680;-87
2023/02/25 13:41:03;;;;;;;2.08;1.50;;;;;;;;;;10376909;28;20062;-87
2023/02/25 13:46:23;;;;;;;1.20;0.95;;;;;;;;;;10364044;28;20053;-87
2023/02/25 13:52:03;;;;;;;2.53;1.60;;;;;;;;;;10353738;28;20694;-85
2023/02/25 13:57:27;;;;;;;4.15;2.10;;;;;;;;;;10326130;28;20110;-88
2023/02/25 14:02:58;;;;;;;2.00;1.65;;;;;;;;;;10322359;28;20042;-88
2023/02/25 14:08:16;;;;;;;3.25;2.10;;;;;;;;;;10290975;28;20134;-85
2023/02/25 14:13:57;;;;;;;4.10;2.92;;;;;;;;;;10300283;28;20128;-88
2023/02/25 14:19:24;;;;;;;3.25;1.30;;;;;;;;;;10281690;28;20038;-85
2023/02/25 14:24:36;;;;;;;1.77;1.00;;;;;;;;;;10369903;28;20053;-88
2023/02/25 14:29:59;;;;;;;0.98;0.60;;;;;;;;;;10387854;28;20045;-85
2023/02/25 14:35:28;;;;;;;1.10;0.60;;;;;;;;;;10359155;28;20045;-88
2023/02/25 14:40:39;;;;;;;0.90;0.45;;;;;;;;;;10367082;28;20591;-86
2023/02/25 14:45:51;;;;;;;1.92;1.02;;;;;;;;;;10310932;28;20077;-87
2023/02/25 14:51:07;;;;;;;2.92;1.00;;;;;;;;;;10354334;28;20053;-86
2023/02/25 14:56:41;;;;;;;0.70;0.70;;;;;;;;;;10388123;28;20077;-85
2023/02/25 15:02:21;;;;;;;1.05;0.50;;;;;;;;;;10334957;28;20473;-85
2023/02/25 15:07:44;;;;;;;2.25;0.90;;;;;;;;;;10346770;28;20045;-85
2023/02/25 15:13:13;;;;;;;1.45;0.77;;;;;;;;;;10369658;28;20085;-86
2023/02/25 15:18:42;;;;;;;2.42;0.73;;;;;;;;;;10348923;28;20052;-88
2023/02/25 15:23:51;;;;;;;1.38;0.70;;;;;;;;;;10379633;28;20125;-87
2023/02/25 15:28:55;;;;;;;3.60;1.20;;;;;;;;;;10377048;28;20068;-89
2023/02/25 15:34:34;;;;;;;1.52;0.93;;;;;;;;;;10406940;28;20504;-90
2023/02/25 15:39:49;;;;;;;1.70;1.08;;;;;;;;;;10371758;28;20041;-89
2023/02/25 15:44:53;;;;;;;1.75;1.08;;;;;;;;;;10403377;28;20033;-88
2023/02/25 15:49:58;;;;;;;4.07;1.05;;;;;;;;;;10406372;28;20128;-87
2023/02/25 15:55:19;;;;;;;3.83;1.42;;;;;;;;;;10380928;28;20424;-90
2023/02/25 16:01:02;;;;;;;2.13;0.88;;;;;;;;;;10403532;28;20041;-89
2023/02/25 16:06:16;;;;;;;1.40;0.95;;;;;;;;;;10390758;28;20141;-88
2023/02/25 16:11:26;;;;;;;3.10;1.23;;;;;;;;;;10390956;28;20046;-86
2023/02/25 16:16:35;;;;;;;2.63;1.00;;;;;;;;;;10389153;28;20547;-86
2023/02/25 16:21:51;;;;;;;2.90;1.10;;;;;;;;;;10386414;28;20052;-88
2023/02/25 16:27:03;;;;;;;2.53;0.90;;;;;;;;;;10379854;28;20371;-88
2023/02/25 16:32:17;;;;;;;2.95;0.82;;;;;;;;;;10372049;28;20096;-88
2023/02/25 16:37:33;;;;;;;0.70;0.70;;;;;;;;;;10381409;28;20409;-87
2023/02/25 16:42:39;;;;;;;1.05;0.60;;;;;;;;;;10343081;28;20050;-88
2023/02/25 16:47:46;;;;;;;0.70;0.60;;;;;;;;;;10328835;28;20037;-88
2023/02/25 16:52:51;;;;;;;3.55;1.40;;;;;;;;;;10324284;28;20037;-87
2023/02/25 16:58:06;;;;;;;2.50;1.00;;;;;;;;;;10319585;28;20034;-88
2023/02/25 17:03:11;;;;;;;2.90;1.00;;;;;;;;;;10301798;28;20057;-88
2023/02/25 17:08:18;;;;;;;1.98;0.82;;;;;;;;;;10301253;28;20038;-88
2023/02/25 17:13:26;;;;;;;3.72;1.40;;;;;;;;;;10315483;28;20135;-88
2023/02/25 17:18:32;;;;;;;1.20;0.95;;;;;;;;;;10304092;28;20055;-88
2023/02/25 17:23:42;;;;;;;1.10;0.90;;;;;;;;;;10306295;28;20263;-88
2023/02/25 17:28:49;;;;;;;3.47;0.82;;;;;;;;;;10300827;28;20278;-88
2023/02/25 17:33:55;;;;;;;2.65;0.77;;;;;;;;;;10317399;28;20616;-90
2023/02/25 17:39:04;;;;;;;1.13;0.60;;;;;;;;;;10313439;28;20046;-89
2023/02/25 17:44:11;;;;;;;1.60;1.50;;;;;;;;;;10327570;28;20050;-90
2023/02/25 17:49:21;;;;;;;1.88;1.40;;;;;;;;;;10328990;28;20046;-89
2023/02/25 17:54:28;;;;;;;1.85;0.93;;;;;;;;;;10389264;28;20057;-87
2023/02/25 17:59:37;;;;;;;0.60;0.60;;;;;;;;;;10368468;28;20482;-92
2023/02/25 18:04:44;;;;;;;2.67;0.90;;;;;;;;;;10375216;28;20048;-90
2023/02/25 18:09:50;;;;;;;0.68;0.55;;;;;;;;;;10379332;28;20120;-88
2023/02/25 18:14:57;;;;;;;0.80;0.63;;;;;;;;;;10382524;28;20041;-91
2023/02/25 18:20:02;;;;;;;;;;;;;;;;;;10401526;28;20060;-88
2023/02/25 18:25:29;;;;;;;0.93;0.47;;;;;;;;;;10390139;28;19921;-91
2023/02/25 18:30:33;;;;;;;0.90;0.70;;;;;;;;;;10406092;28;20109;-87
2023/02/25 18:35:39;;;;;;;2.90;0.77;;;;;;;;;;10401945;28;20057;-88
2023/02/25 18:40:44;;;;;;;;;;;;;;;;;;10398820;28;20060;-87
2023/02/25 18:45:51;;;;;;;0.85;0.60;;;;;;;;;;10396033;28;19952;-87
2023/02/25 18:50:57;;;;;;;1.75;0.70;;;;;;;;;;10385159;28;20466;-86
2023/02/25 18:56:02;;;;;;;1.02;0.70;;;;;;;;;;10392076;28;20397;-85
2023/02/25 19:01:07;;;;;;;1.15;0.90;;;;;;;;;;10389317;28;20255;-86
2023/02/25 19:06:10;;;;;;;1.58;1.00;;;;;;;;;;10398220;28;20065;-88
2023/02/25 19:11:20;;;;;;;1.85;0.80;;;;;;;;;;10366674;28;20058;-83
2023/02/25 19:16:26;;;;;;;1.08;0.60;;;;;;;;;;10313280;28;20042;-83
2023/02/25 19:21:30;;;;;;;;;;;;;;;;;;10320039;28;20052;-83
2023/02/25 19:26:37;;;;;;;2.90;1.17;;;;;;;;;;10321131;28;20008;-83
2023/02/25 19:31:40;;;;;;;4.40;2.35;;;;;;;;;;10299594;28;20047;-83
2023/02/25 19:36:44;;;;;;;4.22;1.70;;;;;;;;;;10308365;28;20073;-84
2023/02/25 19:41:49;;;;;;;1.90;1.55;;;;;;;;;;10335621;28;20563;-87
2023/02/25 19:46:52;;;;;;;2.17;1.98;;;;;;;;;;10331074;28;20058;-88
2023/02/25 19:51:56;;;;;;;2.38;1.80;;;;;;;;;;10322510;28;20445;-83
2023/02/25 19:57:03;;;;;;;;;;;;;;;;;;10307088;28;20076;-83
2023/02/25 20:02:07;;;;;;;1.10;0.73;;;;;;;;;;10306800;28;19936;-88
2023/02/25 20:07:10;;;;;;;2.45;0.90;;;;;;;;;;10324663;28;20052;-86
2023/02/25 20:12:15;;;;;;;0.70;0.70;;;;;;;;;;10333307;28;20045;-90
2023/02/25 20:17:18;;;;;;;0.57;0.57;;;;;;;;;;10328828;28;20076;-86
2023/02/25 20:22:22;;;;;;;0.90;0.70;;;;;;;;;;10335312;28;20049;-88
2023/02/25 20:27:28;;;;;;;0.70;0.70;;;;;;;;;;10329277;28;20042;-87
2023/02/25 20:32:31;;;;;;;0.82;0.70;;;;;;;;;;10326016;28;20069;-86
2023/02/25 20:37:39;;;;;;;1.70;1.00;;;;;;;;;;10339609;28;20129;-88
2023/02/25 20:42:46;;;;;;;1.13;0.88;;;;;;;;;;10336147;28;20396;-85
2023/02/25 20:47:52;;;;;;;1.90;1.02;;;;;;;;;;10331226;28;20049;-87
2023/02/25 20:52:57;;;;;;;1.80;0.90;;;;;;;;;;10321326;28;20417;-87
2023/02/25 20:58:02;;;;;;;1.98;1.10;;;;;;;;;;10316081;28;20058;-85
2023/02/25 21:03:06;;;;;;;3.45;1.33;;;;;;;;;;10329506;28;20564;-85
2023/02/25 21:08:10;;;;;;;1.35;1.10;;;;;;;;;;10329529;28;20050;-87
2023/02/25 21:13:15;;;;;;;1.30;0.93;;;;;;;;;;10329305;28;20054;-87
2023/02/25 21:18:18;;;;;;;0.73;0.70;;;;;;;;;;10337071;28;20133;-85
2023/02/25 21:23:23;;;;;;;1.20;0.73;;;;;;;;;;10321266;28;20461;-86
2023/02/25 21:28:28;;;;;;;1.67;0.80;;;;;;;;;;10318173;28;20555;-85
2023/02/25 21:33:32;;;;;;;1.13;0.87;;;;;;;;;;10309665;28;20054;-89
2023/02/25 21:38:36;;;;;;;4.13;1.55;;;;;;;;;;10320484;28;20513;-83
2023/02/25 21:43:42;;;;;;;2.90;1.50;;;;;;;;;;10318304;28;20121;-83
2023/02/25 21:48:49;;;;;;;2.00;1.50;;;;;;;;;;10338033;28;20061;-83
2023/02/25 21:53:58;;;;;;;5.05;2.28;;;;;;;;;;10330944;28;20042;-88
2023/02/25 21:59:05;;;;;;;5.03;2.40;;;;;;;;;;10327244;28;20112;-89
2023/02/25 22:04:35;;;;;;;3.40;1.90;;;;;;;;;;10331791;28;20560;-88
2023/02/25 22:09:39;;;;;;;3.78;2.08;;;;;;;;;;10363356;28;20050;-83
2023/02/25 22:14:44;;;;;;;4.85;1.63;;;;;;;;;;10350574;28;20050;-86
2023/02/25 22:19:47;;;;;;;2.85;1.65;;;;;;;;;;10356029;28;20052;-87
2023/02/25 22:24:51;;;;;;;3.95;2.10;;;;;;;;;;10351919;28;20092;-86
2023/02/25 22:29:56;;;;;;;4.35;2.22;;;;;;;;;;10345861;28;20042;-83
2023/02/25 22:34:59;;;;;;;4.20;1.90;;;;;;;;;;10344130;28;20133;-83
2023/02/25 22:40:03;;;;;;;3.72;2.25;;;;;;;;;;10343479;28;20042;-83
2023/02/25 22:45:12;;;;;;;5.43;2.53;;;;;;;;;;10348475;28;20057;-83
2023/02/25 22:50:16;;;;;;;3.90;2.17;;;;;;;;;;10357358;28;20751;-81
2023/02/25 22:55:19;;;;;;;4.53;2.22;;;;;;;;;;10348901;28;20241;-83
2023/02/25 23:00:25;;;;;;;4.03;2.45;;;;;;;;;;10350935;28;20073;-82
2023/02/25 23:05:28;;;;;;;3.95;2.33;;;;;;;;;;10357504;28;20076;-87
2023/02/25 23:10:33;;;;;;;3.97;2.50;;;;;;;;;;10356979;28;20592;-83
2023/02/25 23:15:41;;;;;;;3.58;1.80;;;;;;;;;;10350042;28;20047;-83
2023/02/25 23:20:46;;;;;;;3.63;2.10;;;;;;;;;;10343073;28;20042;-83
2023/02/25 23:25:53;;;;;;;4.65;2.28;;;;;;;;;;10349456;28;20069;-84
2023/02/25 23:30:57;;;;;;;3.92;2.28;;;;;;;;;;10347733;28;20742;-81
2023/02/25 23:36:04;;;;;;;4.75;2.42;;;;;;;;;;10350845;28;20045;-84
2023/02/25 23:41:08;;;;;;;4.60;2.80;;;;;;;;;;10351165;28;20192;-84
2023/02/25 23:46:13;;;;;;;4.72;2.83;;;;;;;;;;10352040;28;20065;-88
2023/02/25 23:51:17;;;;;;;5.03;2.53;;;;;;;;;;10350648;28;20455;-83
2023/02/25 23:56:21;;;;;;;5.47;2.75;;;;;;;;;;10347844;28;20133;-83
